Terminal Aerodrome Forecast
Issued by NWS Greer, SC

Home | Current Version | Previous Version | Text Only | Print | Product List | Glossary On
Versions: 1 2 3 4 5 6 7 8 9 10 11 12 13 14 15 16 17 18 19
813
FTUS42 KGSP 191433 AAA
TAFGSP
TAF AMD
KGSP 191433Z 1915/2012 04003KT P6SM SCT200
     FM191700 08005KT P6SM BKN070
     FM192100 14005KT P6SM BKN060 PROB30 2002/2005 4SM -SHRA OVC025
     FM200500 08005KT 6SM SHRA OVC035
     FM200800 14003KT 4SM SHRA OVC015=

USA.gov is the U.S. government's official web portal to all federal, state and local government web resources and services.